sensor_id;sensor_type;location;lat;lon;timestamp;P1;durP1;ratioP1;P2;durP2;ratioP2
20415;SDS011;10367;52.202;5.996;2022-08-30T00:02:29;18.80;;;16.83;;
20415;SDS011;10367;52.202;5.996;2022-08-30T00:04:58;17.30;;;15.80;;
20415;SDS011;10367;52.202;5.996;2022-08-30T00:07:28;18.77;;;16.80;;
20415;SDS011;10367;52.202;5.996;2022-08-30T00:09:57;18.27;;;16.40;;
20415;SDS011;10367;52.202;5.996;2022-08-30T00:12:28;18.63;;;16.73;;
20415;SDS011;10367;52.202;5.996;2022-08-30T00:14:58;18.37;;;16.57;;
20415;SDS011;10367;52.202;5.996;2022-08-30T00:17:27;17.77;;;16.20;;
20415;SDS011;10367;52.202;5.996;2022-08-30T00:19:56;18.33;;;16.40;;
20415;SDS011;10367;52.202;5.996;2022-08-30T00:22:24;19.90;;;17.60;;
20415;SDS011;10367;52.202;5.996;2022-08-30T00:24:53;17.47;;;15.77;;
20415;SDS011;10367;52.202;5.996;2022-08-30T00:27:22;17.97;;;16.27;;
20415;SDS011;10367;52.202;5.996;2022-08-30T00:29:52;18.33;;;16.53;;
20415;SDS011;10367;52.202;5.996;2022-08-30T00:32:21;18.03;;;16.30;;
20415;SDS011;10367;52.202;5.996;2022-08-30T00:34:51;19.30;;;17.07;;
20415;SDS011;10367;52.202;5.996;2022-08-30T00:37:21;16.43;;;15.07;;
20415;SDS011;10367;52.202;5.996;2022-08-30T00:39:50;16.23;;;15.00;;
20415;SDS011;10367;52.202;5.996;2022-08-30T00:42:19;17.73;;;16.17;;
20415;SDS011;10367;52.202;5.996;2022-08-30T00:44:48;18.83;;;16.93;;
20415;SDS011;10367;52.202;5.996;2022-08-30T00:47:19;18.33;;;16.70;;
20415;SDS011;10367;52.202;5.996;2022-08-30T00:49:48;16.40;;;15.00;;
20415;SDS011;10367;52.202;5.996;2022-08-30T00:52:21;16.90;;;15.30;;
20415;SDS011;10367;52.202;5.996;2022-08-30T00:54:51;20.17;;;17.90;;
20415;SDS011;10367;52.202;5.996;2022-08-30T00:57:20;17.83;;;16.20;;
20415;SDS011;10367;52.202;5.996;2022-08-30T00:59:49;19.73;;;16.77;;
20415;SDS011;10367;52.202;5.996;2022-08-30T01:02:20;19.67;;;16.53;;
20415;SDS011;10367;52.202;5.996;2022-08-30T01:04:50;19.13;;;17.13;;
20415;SDS011;10367;52.202;5.996;2022-08-30T01:07:21;19.23;;;16.33;;
20415;SDS011;10367;52.202;5.996;2022-08-30T01:09:49;19.57;;;17.53;;
20415;SDS011;10367;52.202;5.996;2022-08-30T01:12:18;17.10;;;15.47;;
20415;SDS011;10367;52.202;5.996;2022-08-30T01:14:47;20.47;;;18.30;;
20415;SDS011;10367;52.202;5.996;2022-08-30T01:17:19;16.33;;;14.93;;
20415;SDS011;10367;52.202;5.996;2022-08-30T01:19:52;20.83;;;17.70;;
20415;SDS011;10367;52.202;5.996;2022-08-30T01:22:24;19.50;;;16.53;;
20415;SDS011;10367;52.202;5.996;2022-08-30T01:25:02;22.83;;;18.07;;
20415;SDS011;10367;52.202;5.996;2022-08-30T01:27:35;19.93;;;16.97;;
20415;SDS011;10367;52.202;5.996;2022-08-30T01:30:06;17.93;;;16.13;;
20415;SDS011;10367;52.202;5.996;2022-08-30T01:32:37;18.10;;;16.03;;
20415;SDS011;10367;52.202;5.996;2022-08-30T01:35:07;22.03;;;17.70;;
20415;SDS011;10367;52.202;5.996;2022-08-30T01:37:37;21.17;;;18.17;;
20415;SDS011;10367;52.202;5.996;2022-08-30T01:40:08;17.77;;;16.07;;
20415;SDS011;10367;52.202;5.996;2022-08-30T01:42:38;19.90;;;16.40;;
20415;SDS011;10367;52.202;5.996;2022-08-30T01:45:06;20.47;;;16.17;;
20415;SDS011;10367;52.202;5.996;2022-08-30T01:47:36;24.83;;;18.90;;
20415;SDS011;10367;52.202;5.996;2022-08-30T01:50:05;19.50;;;17.50;;
20415;SDS011;10367;52.202;5.996;2022-08-30T01:52:35;20.43;;;17.57;;
20415;SDS011;10367;52.202;5.996;2022-08-30T01:55:04;20.23;;;17.83;;
20415;SDS011;10367;52.202;5.996;2022-08-30T01:57:35;20.53;;;17.63;;
20415;SDS011;10367;52.202;5.996;2022-08-30T02:00:04;19.77;;;17.37;;
20415;SDS011;10367;52.202;5.996;2022-08-30T02:02:35;18.17;;;16.37;;
20415;SDS011;10367;52.202;5.996;2022-08-30T02:05:04;19.30;;;17.40;;
20415;SDS011;10367;52.202;5.996;2022-08-30T02:07:34;23.33;;;19.03;;
20415;SDS011;10367;52.202;5.996;2022-08-30T02:10:02;18.17;;;16.30;;
20415;SDS011;10367;52.202;5.996;2022-08-30T02:12:32;19.60;;;17.63;;
20415;SDS011;10367;52.202;5.996;2022-08-30T02:15:02;21.67;;;17.87;;
20415;SDS011;10367;52.202;5.996;2022-08-30T02:17:32;26.50;;;17.83;;
20415;SDS011;10367;52.202;5.996;2022-08-30T02:20:00;20.67;;;17.43;;
20415;SDS011;10367;52.202;5.996;2022-08-30T02:22:30;20.00;;;17.53;;
20415;SDS011;10367;52.202;5.996;2022-08-30T02:24:59;26.17;;;18.63;;
20415;SDS011;10367;52.202;5.996;2022-08-30T02:27:27;19.47;;;17.30;;
20415;SDS011;10367;52.202;5.996;2022-08-30T02:29:56;18.00;;;16.13;;
20415;SDS011;10367;52.202;5.996;2022-08-30T02:32:26;18.57;;;16.67;;
20415;SDS011;10367;52.202;5.996;2022-08-30T02:34:55;21.17;;;17.57;;
20415;SDS011;10367;52.202;5.996;2022-08-30T02:37:23;18.30;;;16.33;;
20415;SDS011;10367;52.202;5.996;2022-08-30T02:39:52;19.63;;;17.53;;
20415;SDS011;10367;52.202;5.996;2022-08-30T02:42:21;18.87;;;17.07;;
20415;SDS011;10367;52.202;5.996;2022-08-30T02:44:49;26.07;;;20.03;;
20415;SDS011;10367;52.202;5.996;2022-08-30T02:47:18;19.67;;;16.87;;
20415;SDS011;10367;52.202;5.996;2022-08-30T02:49:48;19.03;;;17.03;;
20415;SDS011;10367;52.202;5.996;2022-08-30T02:52:17;22.93;;;19.03;;
20415;SDS011;10367;52.202;5.996;2022-08-30T02:54:53;21.97;;;18.70;;
20415;SDS011;10367;52.202;5.996;2022-08-30T02:57:22;20.77;;;16.50;;
20415;SDS011;10367;52.202;5.996;2022-08-30T02:59:50;22.27;;;17.60;;
20415;SDS011;10367;52.202;5.996;2022-08-30T03:02:19;19.37;;;17.33;;
20415;SDS011;10367;52.202;5.996;2022-08-30T03:04:50;22.40;;;16.70;;
20415;SDS011;10367;52.202;5.996;2022-08-30T03:07:19;19.63;;;17.43;;
20415;SDS011;10367;52.202;5.996;2022-08-30T03:09:47;21.23;;;17.23;;
20415;SDS011;10367;52.202;5.996;2022-08-30T03:12:16;22.07;;;18.80;;
20415;SDS011;10367;52.202;5.996;2022-08-30T03:14:45;18.97;;;16.93;;
20415;SDS011;10367;52.202;5.996;2022-08-30T03:17:14;20.90;;;17.67;;
20415;SDS011;10367;52.202;5.996;2022-08-30T03:19:43;20.47;;;17.97;;
20415;SDS011;10367;52.202;5.996;2022-08-30T03:22:13;20.27;;;17.40;;
20415;SDS011;10367;52.202;5.996;2022-08-30T03:24:42;21.00;;;17.53;;
20415;SDS011;10367;52.202;5.996;2022-08-30T03:27:11;21.00;;;18.70;;
20415;SDS011;10367;52.202;5.996;2022-08-30T03:29:40;18.70;;;16.80;;
20415;SDS011;10367;52.202;5.996;2022-08-30T03:32:09;23.70;;;19.20;;
20415;SDS011;10367;52.202;5.996;2022-08-30T03:34:37;23.77;;;19.63;;
20415;SDS011;10367;52.202;5.996;2022-08-30T03:37:06;23.77;;;19.10;;
20415;SDS011;10367;52.202;5.996;2022-08-30T03:39:39;19.63;;;17.53;;
20415;SDS011;10367;52.202;5.996;2022-08-30T03:42:07;22.97;;;18.20;;
20415;SDS011;10367;52.202;5.996;2022-08-30T03:44:37;24.17;;;18.23;;
20415;SDS011;10367;52.202;5.996;2022-08-30T03:47:06;19.57;;;17.23;;
20415;SDS011;10367;52.202;5.996;2022-08-30T03:49:34;24.37;;;19.20;;
20415;SDS011;10367;52.202;5.996;2022-08-30T03:52:03;20.00;;;17.30;;
20415;SDS011;10367;52.202;5.996;2022-08-30T03:54:32;20.07;;;17.97;;
20415;SDS011;10367;52.202;5.996;2022-08-30T03:57:03;21.50;;;18.07;;
20415;SDS011;10367;52.202;5.996;2022-08-30T03:59:33;19.60;;;17.53;;
20415;SDS011;10367;52.202;5.996;2022-08-30T04:02:01;21.67;;;17.47;;
20415;SDS011;10367;52.202;5.996;2022-08-30T04:04:31;26.30;;;18.97;;
20415;SDS011;10367;52.202;5.996;2022-08-30T04:07:00;22.60;;;18.07;;
20415;SDS011;10367;52.202;5.996;2022-08-30T04:09:28;22.03;;;17.90;;
20415;SDS011;10367;52.202;5.996;2022-08-30T04:11:57;25.13;;;18.93;;
20415;SDS011;10367;52.202;5.996;2022-08-30T04:14:28;19.00;;;16.33;;
20415;SDS011;10367;52.202;5.996;2022-08-30T04:16:56;22.30;;;19.23;;
20415;SDS011;10367;52.202;5.996;2022-08-30T04:19:25;24.23;;;19.17;;
20415;SDS011;10367;52.202;5.996;2022-08-30T04:21:53;21.73;;;19.00;;
20415;SDS011;10367;52.202;5.996;2022-08-30T04:24:23;23.47;;;18.93;;
20415;SDS011;10367;52.202;5.996;2022-08-30T04:26:52;23.60;;;19.90;;
20415;SDS011;10367;52.202;5.996;2022-08-30T04:29:21;20.73;;;17.20;;
20415;SDS011;10367;52.202;5.996;2022-08-30T04:31:50;24.40;;;19.17;;
20415;SDS011;10367;52.202;5.996;2022-08-30T04:34:19;24.37;;;18.47;;
20415;SDS011;10367;52.202;5.996;2022-08-30T04:36:48;22.90;;;17.90;;
20415;SDS011;10367;52.202;5.996;2022-08-30T04:39:17;29.37;;;19.00;;
20415;SDS011;10367;52.202;5.996;2022-08-30T04:41:46;23.37;;;17.93;;
20415;SDS011;10367;52.202;5.996;2022-08-30T04:44:14;25.07;;;18.27;;
20415;SDS011;10367;52.202;5.996;2022-08-30T04:46:45;18.33;;;16.43;;
20415;SDS011;10367;52.202;5.996;2022-08-30T04:49:15;31.43;;;18.67;;
20415;SDS011;10367;52.202;5.996;2022-08-30T04:51:44;19.40;;;17.10;;
20415;SDS011;10367;52.202;5.996;2022-08-30T04:54:12;20.57;;;16.20;;
20415;SDS011;10367;52.202;5.996;2022-08-30T04:56:41;25.10;;;18.43;;
20415;SDS011;10367;52.202;5.996;2022-08-30T04:59:10;20.67;;;17.37;;
20415;SDS011;10367;52.202;5.996;2022-08-30T05:01:39;27.57;;;17.93;;
20415;SDS011;10367;52.202;5.996;2022-08-30T05:04:11;25.93;;;19.77;;
20415;SDS011;10367;52.202;5.996;2022-08-30T05:06:42;22.30;;;17.97;;
20415;SDS011;10367;52.202;5.996;2022-08-30T05:09:11;22.00;;;18.17;;
20415;SDS011;10367;52.202;5.996;2022-08-30T05:11:39;25.33;;;18.87;;
20415;SDS011;10367;52.202;5.996;2022-08-30T05:14:09;23.93;;;17.03;;
20415;SDS011;10367;52.202;5.996;2022-08-30T05:16:38;28.63;;;19.90;;
20415;SDS011;10367;52.202;5.996;2022-08-30T05:19:07;23.87;;;17.10;;
20415;SDS011;10367;52.202;5.996;2022-08-30T05:21:36;26.50;;;19.33;;
20415;SDS011;10367;52.202;5.996;2022-08-30T05:24:08;21.60;;;17.50;;
20415;SDS011;10367;52.202;5.996;2022-08-30T05:26:37;24.00;;;18.33;;
20415;SDS011;10367;52.202;5.996;2022-08-30T05:29:06;21.53;;;17.10;;
20415;SDS011;10367;52.202;5.996;2022-08-30T05:31:35;26.63;;;19.00;;
20415;SDS011;10367;52.202;5.996;2022-08-30T05:34:03;23.30;;;19.03;;
20415;SDS011;10367;52.202;5.996;2022-08-30T05:36:33;20.43;;;16.30;;
20415;SDS011;10367;52.202;5.996;2022-08-30T05:39:03;24.07;;;17.53;;
20415;SDS011;10367;52.202;5.996;2022-08-30T05:41:36;21.17;;;17.53;;
20415;SDS011;10367;52.202;5.996;2022-08-30T05:44:06;24.27;;;18.90;;
20415;SDS011;10367;52.202;5.996;2022-08-30T05:46:36;21.07;;;18.20;;
20415;SDS011;10367;52.202;5.996;2022-08-30T05:49:08;25.47;;;18.73;;
20415;SDS011;10367;52.202;5.996;2022-08-30T05:51:37;21.70;;;17.50;;
20415;SDS011;10367;52.202;5.996;2022-08-30T05:54:09;24.13;;;17.97;;
20415;SDS011;10367;52.202;5.996;2022-08-30T05:56:41;21.83;;;17.50;;
20415;SDS011;10367;52.202;5.996;2022-08-30T05:59:12;19.80;;;17.00;;
20415;SDS011;10367;52.202;5.996;2022-08-30T06:01:43;20.50;;;17.13;;
20415;SDS011;10367;52.202;5.996;2022-08-30T06:04:13;19.27;;;17.37;;
20415;SDS011;10367;52.202;5.996;2022-08-30T06:06:42;17.97;;;16.07;;
20415;SDS011;10367;52.202;5.996;2022-08-30T06:09:11;21.33;;;18.93;;
20415;SDS011;10367;52.202;5.996;2022-08-30T06:11:43;20.90;;;17.13;;
20415;SDS011;10367;52.202;5.996;2022-08-30T06:14:12;24.97;;;18.70;;
20415;SDS011;10367;52.202;5.996;2022-08-30T06:16:41;22.20;;;18.40;;
20415;SDS011;10367;52.202;5.996;2022-08-30T06:19:12;19.43;;;17.33;;
20415;SDS011;10367;52.202;5.996;2022-08-30T06:21:42;18.87;;;16.80;;
20415;SDS011;10367;52.202;5.996;2022-08-30T06:24:14;21.53;;;16.37;;
20415;SDS011;10367;52.202;5.996;2022-08-30T06:26:46;20.67;;;16.80;;
20415;SDS011;10367;52.202;5.996;2022-08-30T06:29:17;16.80;;;15.07;;
20415;SDS011;10367;52.202;5.996;2022-08-30T06:31:47;18.77;;;16.80;;
20415;SDS011;10367;52.202;5.996;2022-08-30T06:34:16;18.17;;;16.40;;
20415;SDS011;10367;52.202;5.996;2022-08-30T06:36:45;20.00;;;17.90;;
20415;SDS011;10367;52.202;5.996;2022-08-30T06:39:14;18.33;;;16.47;;
20415;SDS011;10367;52.202;5.996;2022-08-30T06:41:42;17.30;;;15.70;;
20415;SDS011;10367;52.202;5.996;2022-08-30T06:44:13;19.33;;;16.73;;
20415;SDS011;10367;52.202;5.996;2022-08-30T06:46:42;20.30;;;16.97;;
20415;SDS011;10367;52.202;5.996;2022-08-30T06:49:10;18.57;;;16.67;;
20415;SDS011;10367;52.202;5.996;2022-08-30T06:51:39;20.00;;;17.30;;
20415;SDS011;10367;52.202;5.996;2022-08-30T06:54:09;19.27;;;17.27;;
20415;SDS011;10367;52.202;5.996;2022-08-30T06:56:38;18.67;;;16.70;;
20415;SDS011;10367;52.202;5.996;2022-08-30T06:59:25;19.00;;;16.30;;
20415;SDS011;10367;52.202;5.996;2022-08-30T07:01:54;18.33;;;15.63;;
20415;SDS011;10367;52.202;5.996;2022-08-30T07:04:24;17.53;;;15.83;;
20415;SDS011;10367;52.202;5.996;2022-08-30T07:06:52;18.50;;;16.50;;
20415;SDS011;10367;52.202;5.996;2022-08-30T07:09:21;14.53;;;13.43;;
20415;SDS011;10367;52.202;5.996;2022-08-30T07:11:50;16.77;;;15.23;;
20415;SDS011;10367;52.202;5.996;2022-08-30T07:14:20;17.83;;;15.43;;
20415;SDS011;10367;52.202;5.996;2022-08-30T07:16:50;20.90;;;16.17;;
20415;SDS011;10367;52.202;5.996;2022-08-30T07:19:19;16.27;;;14.80;;
20415;SDS011;10367;52.202;5.996;2022-08-30T07:21:48;16.80;;;15.23;;
20415;SDS011;10367;52.202;5.996;2022-08-30T07:24:17;18.63;;;15.17;;
20415;SDS011;10367;52.202;5.996;2022-08-30T07:26:48;15.33;;;14.20;;
20415;SDS011;10367;52.202;5.996;2022-08-30T07:29:18;17.27;;;15.53;;
20415;SDS011;10367;52.202;5.996;2022-08-30T07:31:48;16.40;;;15.00;;
20415;SDS011;10367;52.202;5.996;2022-08-30T07:34:18;17.00;;;15.40;;
20415;SDS011;10367;52.202;5.996;2022-08-30T07:36:51;21.30;;;18.17;;
20415;SDS011;10367;52.202;5.996;2022-08-30T07:39:20;16.60;;;15.13;;
20415;SDS011;10367;52.202;5.996;2022-08-30T07:41:48;16.97;;;15.30;;
20415;SDS011;10367;52.202;5.996;2022-08-30T07:44:17;17.70;;;16.10;;
20415;SDS011;10367;52.202;5.996;2022-08-30T07:46:50;16.00;;;14.57;;
20415;SDS011;10367;52.202;5.996;2022-08-30T07:49:21;15.47;;;14.20;;
20415;SDS011;10367;52.202;5.996;2022-08-30T07:51:49;14.57;;;13.50;;
20415;SDS011;10367;52.202;5.996;2022-08-30T07:54:18;16.80;;;15.37;;
20415;SDS011;10367;52.202;5.996;2022-08-30T07:56:46;15.13;;;14.07;;
20415;SDS011;10367;52.202;5.996;2022-08-30T07:59:15;15.60;;;14.23;;
20415;SDS011;10367;52.202;5.996;2022-08-30T08:01:44;14.80;;;13.70;;
20415;SDS011;10367;52.202;5.996;2022-08-30T08:04:12;16.77;;;15.27;;
20415;SDS011;10367;52.202;5.996;2022-08-30T08:06:42;17.03;;;15.50;;
20415;SDS011;10367;52.202;5.996;2022-08-30T08:09:11;16.90;;;15.43;;
20415;SDS011;10367;52.202;5.996;2022-08-30T08:11:40;15.53;;;14.40;;
20415;SDS011;10367;52.202;5.996;2022-08-30T08:14:08;17.23;;;15.90;;
20415;SDS011;10367;52.202;5.996;2022-08-30T08:16:37;17.37;;;15.90;;
20415;SDS011;10367;52.202;5.996;2022-08-30T08:19:08;16.87;;;15.57;;
20415;SDS011;10367;52.202;5.996;2022-08-30T08:21:38;15.50;;;14.40;;
20415;SDS011;10367;52.202;5.996;2022-08-30T08:24:08;17.20;;;15.70;;
20415;SDS011;10367;52.202;5.996;2022-08-30T08:26:37;17.40;;;15.63;;
20415;SDS011;10367;52.202;5.996;2022-08-30T08:29:11;16.10;;;14.73;;
20415;SDS011;10367;52.202;5.996;2022-08-30T08:31:40;17.30;;;15.70;;
20415;SDS011;10367;52.202;5.996;2022-08-30T08:34:09;17.33;;;15.93;;
20415;SDS011;10367;52.202;5.996;2022-08-30T08:36:38;17.20;;;15.83;;
20415;SDS011;10367;52.202;5.996;2022-08-30T08:39:08;17.27;;;15.73;;
20415;SDS011;10367;52.202;5.996;2022-08-30T08:41:44;18.87;;;17.13;;
20415;SDS011;10367;52.202;5.996;2022-08-30T08:44:24;17.13;;;15.80;;
20415;SDS011;10367;52.202;5.996;2022-08-30T08:47:10;18.17;;;16.53;;
20415;SDS011;10367;52.202;5.996;2022-08-30T08:49:43;16.13;;;14.97;;
20415;SDS011;10367;52.202;5.996;2022-08-30T08:52:15;19.03;;;16.97;;
20415;SDS011;10367;52.202;5.996;2022-08-30T08:55:16;16.67;;;15.30;;
20415;SDS011;10367;52.202;5.996;2022-08-30T08:57:47;17.60;;;16.27;;
20415;SDS011;10367;52.202;5.996;2022-08-30T09:00:18;18.33;;;16.83;;
20415;SDS011;10367;52.202;5.996;2022-08-30T09:02:47;16.33;;;15.17;;
20415;SDS011;10367;52.202;5.996;2022-08-30T09:05:25;15.70;;;14.60;;
20415;SDS011;10367;52.202;5.996;2022-08-30T09:07:57;17.43;;;16.17;;
20415;SDS011;10367;52.202;5.996;2022-08-30T09:10:36;15.47;;;14.37;;
20415;SDS011;10367;52.202;5.996;2022-08-30T09:13:16;16.83;;;15.63;;
20415;SDS011;10367;52.202;5.996;2022-08-30T09:15:49;17.50;;;16.17;;
20415;SDS011;10367;52.202;5.996;2022-08-30T09:18:38;17.57;;;16.23;;
20415;SDS011;10367;52.202;5.996;2022-08-30T09:21:11;18.47;;;16.97;;
20415;SDS011;10367;52.202;5.996;2022-08-30T09:23:46;19.53;;;17.80;;
20415;SDS011;10367;52.202;5.996;2022-08-30T09:26:26;18.17;;;16.73;;
20415;SDS011;10367;52.202;5.996;2022-08-30T09:28:56;18.67;;;17.10;;
20415;SDS011;10367;52.202;5.996;2022-08-30T09:31:27;18.30;;;16.53;;
20415;SDS011;10367;52.202;5.996;2022-08-30T09:33:59;19.97;;;18.07;;
20415;SDS011;10367;52.202;5.996;2022-08-30T09:36:33;18.33;;;16.93;;
20415;SDS011;10367;52.202;5.996;2022-08-30T09:39:12;19.40;;;17.70;;
20415;SDS011;10367;52.202;5.996;2022-08-30T09:41:46;20.27;;;18.40;;
20415;SDS011;10367;52.202;5.996;2022-08-30T09:44:17;17.73;;;16.43;;
20415;SDS011;10367;52.202;5.996;2022-08-30T09:46:49;18.83;;;17.17;;
20415;SDS011;10367;52.202;5.996;2022-08-30T09:49:28;17.77;;;16.47;;
20415;SDS011;10367;52.202;5.996;2022-08-30T09:52:24;20.00;;;18.20;;
20415;SDS011;10367;52.202;5.996;2022-08-30T09:55:04;19.30;;;17.80;;
20415;SDS011;10367;52.202;5.996;2022-08-30T09:57:49;16.73;;;15.63;;
20415;SDS011;10367;52.202;5.996;2022-08-30T10:00:27;18.07;;;16.70;;
20415;SDS011;10367;52.202;5.996;2022-08-30T10:03:07;20.50;;;18.13;;
20415;SDS011;10367;52.202;5.996;2022-08-30T10:06:12;19.43;;;17.83;;
20415;SDS011;10367;52.202;5.996;2022-08-30T10:08:52;18.47;;;16.77;;
20415;SDS011;10367;52.202;5.996;2022-08-30T10:11:30;19.27;;;17.60;;
20415;SDS011;10367;52.202;5.996;2022-08-30T10:14:06;19.50;;;17.70;;
20415;SDS011;10367;52.202;5.996;2022-08-30T10:16:58;19.70;;;18.03;;
20415;SDS011;10367;52.202;5.996;2022-08-30T10:19:38;19.37;;;17.87;;
20415;SDS011;10367;52.202;5.996;2022-08-30T10:22:21;20.20;;;18.63;;
20415;SDS011;10367;52.202;5.996;2022-08-30T10:25:00;20.60;;;18.67;;
20415;SDS011;10367;52.202;5.996;2022-08-30T10:27:34;21.13;;;18.60;;
20415;SDS011;10367;52.202;5.996;2022-08-30T10:30:11;20.40;;;18.80;;
20415;SDS011;10367;52.202;5.996;2022-08-30T10:32:43;19.57;;;18.10;;
20415;SDS011;10367;52.202;5.996;2022-08-30T10:35:18;19.13;;;17.53;;
20415;SDS011;10367;52.202;5.996;2022-08-30T10:37:50;18.87;;;17.47;;
20415;SDS011;10367;52.202;5.996;2022-08-30T10:40:24;19.47;;;17.97;;
20415;SDS011;10367;52.202;5.996;2022-08-30T10:43:17;18.93;;;17.63;;
20415;SDS011;10367;52.202;5.996;2022-08-30T10:45:55;18.90;;;17.63;;
20415;SDS011;10367;52.202;5.996;2022-08-30T10:48:29;19.47;;;18.07;;
20415;SDS011;10367;52.202;5.996;2022-08-30T10:51:07;20.10;;;18.50;;
20415;SDS011;10367;52.202;5.996;2022-08-30T10:53:39;19.73;;;18.23;;
20415;SDS011;10367;52.202;5.996;2022-08-30T10:56:10;21.43;;;19.77;;
20415;SDS011;10367;52.202;5.996;2022-08-30T10:58:44;19.50;;;18.00;;
20415;SDS011;10367;52.202;5.996;2022-08-30T11:01:24;20.33;;;18.93;;
20415;SDS011;10367;52.202;5.996;2022-08-30T11:04:30;20.23;;;18.73;;
20415;SDS011;10367;52.202;5.996;2022-08-30T11:07:16;19.97;;;18.57;;
20415;SDS011;10367;52.202;5.996;2022-08-30T11:10:01;20.93;;;19.23;;
20415;SDS011;10367;52.202;5.996;2022-08-30T11:12:50;19.13;;;17.93;;
20415;SDS011;10367;52.202;5.996;2022-08-30T11:15:24;22.60;;;20.27;;
20415;SDS011;10367;52.202;5.996;2022-08-30T11:17:58;20.27;;;18.80;;
20415;SDS011;10367;52.202;5.996;2022-08-30T11:20:31;21.07;;;19.47;;
20415;SDS011;10367;52.202;5.996;2022-08-30T11:23:13;21.00;;;19.33;;
20415;SDS011;10367;52.202;5.996;2022-08-30T11:25:50;20.80;;;19.40;;
20415;SDS011;10367;52.202;5.996;2022-08-30T11:31:34;20.40;;;19.03;;
20415;SDS011;10367;52.202;5.996;2022-08-30T11:34:11;22.57;;;20.63;;
20415;SDS011;10367;52.202;5.996;2022-08-30T11:37:03;21.87;;;20.23;;
20415;SDS011;10367;52.202;5.996;2022-08-30T11:39:53;20.70;;;19.27;;
20415;SDS011;10367;52.202;5.996;2022-08-30T11:42:38;21.20;;;19.77;;
20415;SDS011;10367;52.202;5.996;2022-08-30T11:54:58;21.93;;;20.37;;
20415;SDS011;10367;52.202;5.996;2022-08-30T11:57:46;21.50;;;20.03;;
20415;SDS011;10367;52.202;5.996;2022-08-30T12:00:29;22.10;;;20.10;;
20415;SDS011;10367;52.202;5.996;2022-08-30T12:03:01;22.80;;;21.20;;
20415;SDS011;10367;52.202;5.996;2022-08-30T12:11:52;21.30;;;19.77;;
20415;SDS011;10367;52.202;5.996;2022-08-30T12:14:32;23.27;;;21.57;;
20415;SDS011;10367;52.202;5.996;2022-08-30T12:17:25;21.87;;;20.23;;
20415;SDS011;10367;52.202;5.996;2022-08-30T12:20:36;21.97;;;20.47;;
20415;SDS011;10367;52.202;5.996;2022-08-30T12:23:16;22.70;;;21.10;;
20415;SDS011;10367;52.202;5.996;2022-08-30T12:25:47;24.10;;;22.27;;
20415;SDS011;10367;52.202;5.996;2022-08-30T12:28:20;21.70;;;20.30;;
20415;SDS011;10367;52.202;5.996;2022-08-30T12:30:51;20.53;;;19.23;;
20415;SDS011;10367;52.202;5.996;2022-08-30T12:33:24;21.17;;;19.67;;
20415;SDS011;10367;52.202;5.996;2022-08-30T12:36:06;22.70;;;21.10;;
20415;SDS011;10367;52.202;5.996;2022-08-30T12:38:40;21.53;;;20.07;;
20415;SDS011;10367;52.202;5.996;2022-08-30T12:41:15;23.37;;;21.63;;
20415;SDS011;10367;52.202;5.996;2022-08-30T12:43:49;21.33;;;19.83;;
20415;SDS011;10367;52.202;5.996;2022-08-30T12:46:19;21.93;;;20.40;;
20415;SDS011;10367;52.202;5.996;2022-08-30T12:48:49;22.93;;;21.33;;
20415;SDS011;10367;52.202;5.996;2022-08-30T12:51:26;22.00;;;20.47;;
20415;SDS011;10367;52.202;5.996;2022-08-30T12:54:01;23.40;;;21.60;;
20415;SDS011;10367;52.202;5.996;2022-08-30T12:56:46;23.70;;;21.90;;
20415;SDS011;10367;52.202;5.996;2022-08-30T13:02:40;23.03;;;21.40;;
20415;SDS011;10367;52.202;5.996;2022-08-30T13:05:27;24.17;;;22.37;;
20415;SDS011;10367;52.202;5.996;2022-08-30T13:08:12;22.97;;;21.27;;
20415;SDS011;10367;52.202;5.996;2022-08-30T13:10:51;22.27;;;20.83;;
20415;SDS011;10367;52.202;5.996;2022-08-30T13:13:28;21.07;;;19.77;;
20415;SDS011;10367;52.202;5.996;2022-08-30T13:16:22;22.20;;;20.60;;
20415;SDS011;10367;52.202;5.996;2022-08-30T13:21:48;21.17;;;19.87;;
20415;SDS011;10367;52.202;5.996;2022-08-30T13:24:18;23.37;;;21.53;;
20415;SDS011;10367;52.202;5.996;2022-08-30T13:26:52;22.40;;;20.97;;
20415;SDS011;10367;52.202;5.996;2022-08-30T13:29:24;21.70;;;20.30;;
20415;SDS011;10367;52.202;5.996;2022-08-30T13:31:54;23.30;;;21.47;;
20415;SDS011;10367;52.202;5.996;2022-08-30T13:34:24;21.23;;;19.93;;
20415;SDS011;10367;52.202;5.996;2022-08-30T13:36:54;22.07;;;20.17;;
20415;SDS011;10367;52.202;5.996;2022-08-30T13:39:24;23.33;;;21.53;;
20415;SDS011;10367;52.202;5.996;2022-08-30T13:41:53;23.83;;;22.17;;
20415;SDS011;10367;52.202;5.996;2022-08-30T13:44:44;23.50;;;21.93;;
20415;SDS011;10367;52.202;5.996;2022-08-30T13:47:13;22.90;;;21.50;;
20415;SDS011;10367;52.202;5.996;2022-08-30T13:50:02;22.50;;;21.00;;
20415;SDS011;10367;52.202;5.996;2022-08-30T13:52:32;23.77;;;22.10;;
20415;SDS011;10367;52.202;5.996;2022-08-30T13:55:00;23.33;;;21.67;;
20415;SDS011;10367;52.202;5.996;2022-08-30T13:57:29;23.10;;;21.50;;
20415;SDS011;10367;52.202;5.996;2022-08-30T14:00:18;23.47;;;21.77;;
20415;SDS011;10367;52.202;5.996;2022-08-30T14:02:48;22.20;;;20.70;;
20415;SDS011;10367;52.202;5.996;2022-08-30T14:05:23;22.43;;;20.93;;
20415;SDS011;10367;52.202;5.996;2022-08-30T14:08:15;22.83;;;21.37;;
20415;SDS011;10367;52.202;5.996;2022-08-30T14:11:06;24.53;;;22.70;;
20415;SDS011;10367;52.202;5.996;2022-08-30T14:13:37;23.23;;;21.70;;
20415;SDS011;10367;52.202;5.996;2022-08-30T14:16:26;22.80;;;21.07;;
20415;SDS011;10367;52.202;5.996;2022-08-30T14:18:57;23.53;;;21.90;;
20415;SDS011;10367;52.202;5.996;2022-08-30T14:21:28;23.57;;;21.90;;
20415;SDS011;10367;52.202;5.996;2022-08-30T14:23:57;23.33;;;21.63;;
20415;SDS011;10367;52.202;5.996;2022-08-30T14:26:27;23.17;;;21.50;;
20415;SDS011;10367;52.202;5.996;2022-08-30T14:28:59;25.53;;;23.50;;
20415;SDS011;10367;52.202;5.996;2022-08-30T14:31:29;24.57;;;22.73;;
20415;SDS011;10367;52.202;5.996;2022-08-30T14:33:59;22.53;;;20.87;;
20415;SDS011;10367;52.202;5.996;2022-08-30T14:36:31;23.30;;;21.73;;
20415;SDS011;10367;52.202;5.996;2022-08-30T14:39:00;25.97;;;23.90;;
20415;SDS011;10367;52.202;5.996;2022-08-30T14:41:35;24.90;;;23.00;;
20415;SDS011;10367;52.202;5.996;2022-08-30T14:44:10;23.77;;;22.17;;
20415;SDS011;10367;52.202;5.996;2022-08-30T14:46:39;23.30;;;21.67;;
20415;SDS011;10367;52.202;5.996;2022-08-30T14:49:09;24.23;;;22.40;;
20415;SDS011;10367;52.202;5.996;2022-08-30T14:51:40;26.43;;;24.20;;
20415;SDS011;10367;52.202;5.996;2022-08-30T14:54:09;24.93;;;22.87;;
20415;SDS011;10367;52.202;5.996;2022-08-30T14:56:38;22.87;;;21.43;;
20415;SDS011;10367;52.202;5.996;2022-08-30T14:59:07;23.37;;;21.53;;
20415;SDS011;10367;52.202;5.996;2022-08-30T15:01:39;23.17;;;21.67;;
20415;SDS011;10367;52.202;5.996;2022-08-30T15:04:09;22.83;;;21.13;;
20415;SDS011;10367;52.202;5.996;2022-08-30T15:06:40;22.80;;;21.13;;
20415;SDS011;10367;52.202;5.996;2022-08-30T15:09:11;23.27;;;21.57;;
20415;SDS011;10367;52.202;5.996;2022-08-30T15:11:41;23.37;;;21.50;;
20415;SDS011;10367;52.202;5.996;2022-08-30T15:14:12;22.67;;;21.17;;
20415;SDS011;10367;52.202;5.996;2022-08-30T15:16:42;22.57;;;20.90;;
20415;SDS011;10367;52.202;5.996;2022-08-30T15:19:11;24.17;;;22.13;;